sensor_id;sensor_type;location;lat;lon;timestamp;temperature;humidity
6724;DHT22;3399;52.530;13.304;2023-03-23T00:00:59;12.70;99.90
6724;DHT22;3399;52.530;13.304;2023-03-23T00:03:24;12.70;99.90
6724;DHT22;3399;52.530;13.304;2023-03-23T00:05:57;12.60;99.90
6724;DHT22;3399;52.530;13.304;2023-03-23T00:08:31;12.50;99.90
6724;DHT22;3399;52.530;13.304;2023-03-23T00:10:57;12.50;99.90
6724;DHT22;3399;52.530;13.304;2023-03-23T00:13:24;12.50;99.90
6724;DHT22;3399;52.530;13.304;2023-03-23T00:15:49;12.40;99.90
6724;DHT22;3399;52.530;13.304;2023-03-23T00:18:17;12.40;99.90
6724;DHT22;3399;52.530;13.304;2023-03-23T00:20:51;12.30;99.90
6724;DHT22;3399;52.530;13.304;2023-03-23T00:23:19;12.30;99.90
6724;DHT22;3399;52.530;13.304;2023-03-23T00:25:46;12.20;99.90
6724;DHT22;3399;52.530;13.304;2023-03-23T00:28:12;12.20;99.90
6724;DHT22;3399;52.530;13.304;2023-03-23T00:30:38;12.20;99.90
6724;DHT22;3399;52.530;13.304;2023-03-23T00:33:04;12.10;99.90
6724;DHT22;3399;52.530;13.304;2023-03-23T00:35:30;12.10;99.90
6724;DHT22;3399;52.530;13.304;2023-03-23T00:37:56;12.10;99.90
6724;DHT22;3399;52.530;13.304;2023-03-23T00:40:24;12.10;99.90
6724;DHT22;3399;52.530;13.304;2023-03-23T00:42:49;12.00;99.90
6724;DHT22;3399;52.530;13.304;2023-03-23T00:45:15;12.00;99.90
6724;DHT22;3399;52.530;13.304;2023-03-23T00:47:42;11.90;99.90
6724;DHT22;3399;52.530;13.304;2023-03-23T00:50:12;11.90;99.90
6724;DHT22;3399;52.530;13.304;2023-03-23T00:52:39;11.80;99.90
6724;DHT22;3399;52.530;13.304;2023-03-23T00:55:05;11.80;99.90
6724;DHT22;3399;52.530;13.304;2023-03-23T00:57:31;11.80;99.90
6724;DHT22;3399;52.530;13.304;2023-03-23T00:59:57;11.70;99.90
6724;DHT22;3399;52.530;13.304;2023-03-23T01:02:22;11.70;99.90
6724;DHT22;3399;52.530;13.304;2023-03-23T01:04:50;11.70;99.90
6724;DHT22;3399;52.530;13.304;2023-03-23T01:07:20;11.70;99.90
6724;DHT22;3399;52.530;13.304;2023-03-23T01:09:47;11.70;99.90
6724;DHT22;3399;52.530;13.304;2023-03-23T01:12:13;11.60;99.90
6724;DHT22;3399;52.530;13.304;2023-03-23T01:14:40;11.60;99.90
6724;DHT22;3399;52.530;13.304;2023-03-23T01:17:05;11.60;99.90
6724;DHT22;3399;52.530;13.304;2023-03-23T01:19:31;11.60;99.90
6724;DHT22;3399;52.530;13.304;2023-03-23T01:21:57;11.60;99.90
6724;DHT22;3399;52.530;13.304;2023-03-23T01:24:22;11.60;99.90
6724;DHT22;3399;52.530;13.304;2023-03-23T01:26:48;11.60;99.90
6724;DHT22;3399;52.530;13.304;2023-03-23T01:29:13;11.50;99.90
6724;DHT22;3399;52.530;13.304;2023-03-23T01:31:39;11.50;99.90
6724;DHT22;3399;52.530;13.304;2023-03-23T01:34:04;11.50;99.90
6724;DHT22;3399;52.530;13.304;2023-03-23T01:36:30;11.50;99.90
6724;DHT22;3399;52.530;13.304;2023-03-23T01:38:58;11.50;99.90
6724;DHT22;3399;52.530;13.304;2023-03-23T01:41:24;11.50;99.90
6724;DHT22;3399;52.530;13.304;2023-03-23T01:46:19;11.50;99.90
6724;DHT22;3399;52.530;13.304;2023-03-23T01:48:47;11.50;99.90
6724;DHT22;3399;52.530;13.304;2023-03-23T01:51:15;11.50;99.90
6724;DHT22;3399;52.530;13.304;2023-03-23T01:53:46;11.50;99.90
6724;DHT22;3399;52.530;13.304;2023-03-23T01:56:16;11.60;99.90
6724;DHT22;3399;52.530;13.304;2023-03-23T01:58:44;11.50;99.90
6724;DHT22;3399;52.530;13.304;2023-03-23T02:01:13;11.50;99.90
6724;DHT22;3399;52.530;13.304;2023-03-23T02:03:42;11.60;99.90
6724;DHT22;3399;52.530;13.304;2023-03-23T02:06:09;11.60;99.90
6724;DHT22;3399;52.530;13.304;2023-03-23T02:08:35;11.50;99.90
6724;DHT22;3399;52.530;13.304;2023-03-23T02:11:01;11.50;99.90
6724;DHT22;3399;52.530;13.304;2023-03-23T02:13:33;11.50;99.90
6724;DHT22;3399;52.530;13.304;2023-03-23T02:19:07;11.50;99.90
6724;DHT22;3399;52.530;13.304;2023-03-23T02:27:20;11.60;99.90
6724;DHT22;3399;52.530;13.304;2023-03-23T02:30:08;11.60;99.90
6724;DHT22;3399;52.530;13.304;2023-03-23T02:35:39;11.70;99.90
6724;DHT22;3399;52.530;13.304;2023-03-23T02:38:12;11.70;99.90
6724;DHT22;3399;52.530;13.304;2023-03-23T02:40:45;11.70;99.90
6724;DHT22;3399;52.530;13.304;2023-03-23T02:43:15;11.70;99.90
6724;DHT22;3399;52.530;13.304;2023-03-23T02:45:43;11.70;99.90
6724;DHT22;3399;52.530;13.304;2023-03-23T02:48:11;11.70;99.90
6724;DHT22;3399;52.530;13.304;2023-03-23T02:50:40;11.60;99.90
6724;DHT22;3399;52.530;13.304;2023-03-23T02:53:09;11.50;99.90
6724;DHT22;3399;52.530;13.304;2023-03-23T02:55:38;11.50;99.90
6724;DHT22;3399;52.530;13.304;2023-03-23T02:58:10;11.50;99.90
6724;DHT22;3399;52.530;13.304;2023-03-23T03:00:37;11.50;99.90
6724;DHT22;3399;52.530;13.304;2023-03-23T03:03:04;11.50;99.90
6724;DHT22;3399;52.530;13.304;2023-03-23T03:05:48;11.50;99.90
6724;DHT22;3399;52.530;13.304;2023-03-23T03:08:28;11.50;99.90
6724;DHT22;3399;52.530;13.304;2023-03-23T03:11:02;11.60;99.90
6724;DHT22;3399;52.530;13.304;2023-03-23T03:16:14;11.60;99.90
6724;DHT22;3399;52.530;13.304;2023-03-23T03:18:52;11.60;99.90
6724;DHT22;3399;52.530;13.304;2023-03-23T03:21:21;11.60;99.90
6724;DHT22;3399;52.530;13.304;2023-03-23T03:23:54;11.60;99.90
6724;DHT22;3399;52.530;13.304;2023-03-23T03:26:21;11.60;99.90
6724;DHT22;3399;52.530;13.304;2023-03-23T03:28:53;11.60;99.90
6724;DHT22;3399;52.530;13.304;2023-03-23T03:31:26;11.60;99.90
6724;DHT22;3399;52.530;13.304;2023-03-23T03:33:53;11.60;99.90
6724;DHT22;3399;52.530;13.304;2023-03-23T03:36:22;11.50;99.90
6724;DHT22;3399;52.530;13.304;2023-03-23T03:38:50;11.60;99.90
6724;DHT22;3399;52.530;13.304;2023-03-23T03:41:17;11.60;99.90
6724;DHT22;3399;52.530;13.304;2023-03-23T03:43:43;11.50;99.90
6724;DHT22;3399;52.530;13.304;2023-03-23T03:46:09;11.40;99.90
6724;DHT22;3399;52.530;13.304;2023-03-23T03:48:34;11.40;99.90
6724;DHT22;3399;52.530;13.304;2023-03-23T03:51:00;11.30;99.90
6724;DHT22;3399;52.530;13.304;2023-03-23T03:53:27;11.30;99.90
6724;DHT22;3399;52.530;13.304;2023-03-23T03:55:53;11.30;99.90
6724;DHT22;3399;52.530;13.304;2023-03-23T03:58:26;11.30;99.90
6724;DHT22;3399;52.530;13.304;2023-03-23T04:00:59;11.40;99.90
6724;DHT22;3399;52.530;13.304;2023-03-23T04:03:26;11.40;99.90
6724;DHT22;3399;52.530;13.304;2023-03-23T04:05:53;11.40;99.90
6724;DHT22;3399;52.530;13.304;2023-03-23T04:08:21;11.40;99.90
6724;DHT22;3399;52.530;13.304;2023-03-23T04:10:47;11.40;99.90
6724;DHT22;3399;52.530;13.304;2023-03-23T04:13:13;11.40;99.90
6724;DHT22;3399;52.530;13.304;2023-03-23T04:15:38;11.50;99.90
6724;DHT22;3399;52.530;13.304;2023-03-23T04:18:04;11.50;99.90
6724;DHT22;3399;52.530;13.304;2023-03-23T04:20:31;11.50;99.90
6724;DHT22;3399;52.530;13.304;2023-03-23T04:22:57;11.50;99.90
6724;DHT22;3399;52.530;13.304;2023-03-23T04:25:22;11.60;99.90
6724;DHT22;3399;52.530;13.304;2023-03-23T04:27:51;11.60;99.90
6724;DHT22;3399;52.530;13.304;2023-03-23T04:30:21;11.60;99.90
6724;DHT22;3399;52.530;13.304;2023-03-23T04:32:48;11.60;99.90
6724;DHT22;3399;52.530;13.304;2023-03-23T04:35:18;11.60;99.90
6724;DHT22;3399;52.530;13.304;2023-03-23T04:37:45;11.60;99.90
6724;DHT22;3399;52.530;13.304;2023-03-23T04:40:10;11.50;99.90
6724;DHT22;3399;52.530;13.304;2023-03-23T04:42:40;11.50;99.90
6724;DHT22;3399;52.530;13.304;2023-03-23T04:45:07;11.50;99.90
6724;DHT22;3399;52.530;13.304;2023-03-23T04:47:35;11.50;99.90
6724;DHT22;3399;52.530;13.304;2023-03-23T04:50:10;11.50;99.90
6724;DHT22;3399;52.530;13.304;2023-03-23T04:52:37;11.40;99.90
6724;DHT22;3399;52.530;13.304;2023-03-23T04:55:08;11.30;99.90
6724;DHT22;3399;52.530;13.304;2023-03-23T04:57:34;11.30;99.90
6724;DHT22;3399;52.530;13.304;2023-03-23T05:00:02;11.30;99.90
6724;DHT22;3399;52.530;13.304;2023-03-23T05:02:36;11.20;99.90
6724;DHT22;3399;52.530;13.304;2023-03-23T05:05:05;11.20;99.90
6724;DHT22;3399;52.530;13.304;2023-03-23T05:07:31;11.20;99.90
6724;DHT22;3399;52.530;13.304;2023-03-23T05:09:57;11.10;99.90
6724;DHT22;3399;52.530;13.304;2023-03-23T05:12:22;11.20;99.90
6724;DHT22;3399;52.530;13.304;2023-03-23T05:14:48;11.10;99.90
6724;DHT22;3399;52.530;13.304;2023-03-23T05:17:14;11.10;99.90
6724;DHT22;3399;52.530;13.304;2023-03-23T05:19:42;11.10;99.90
6724;DHT22;3399;52.530;13.304;2023-03-23T05:22:09;11.10;99.90
6724;DHT22;3399;52.530;13.304;2023-03-23T05:24:34;11.10;99.90
6724;DHT22;3399;52.530;13.304;2023-03-23T05:27:00;11.10;99.90
6724;DHT22;3399;52.530;13.304;2023-03-23T05:29:26;11.00;99.90
6724;DHT22;3399;52.530;13.304;2023-03-23T05:31:52;11.10;99.90
6724;DHT22;3399;52.530;13.304;2023-03-23T05:34:18;11.10;99.90
6724;DHT22;3399;52.530;13.304;2023-03-23T05:36:44;11.10;99.90
6724;DHT22;3399;52.530;13.304;2023-03-23T05:39:13;11.10;99.90
6724;DHT22;3399;52.530;13.304;2023-03-23T05:41:39;11.20;99.90
6724;DHT22;3399;52.530;13.304;2023-03-23T05:44:05;11.10;99.90
6724;DHT22;3399;52.530;13.304;2023-03-23T05:46:31;11.10;99.90
6724;DHT22;3399;52.530;13.304;2023-03-23T05:48:56;11.00;99.90
6724;DHT22;3399;52.530;13.304;2023-03-23T05:51:22;10.90;99.90
6724;DHT22;3399;52.530;13.304;2023-03-23T05:53:47;10.80;99.90
6724;DHT22;3399;52.530;13.304;2023-03-23T05:56:13;10.70;99.90
6724;DHT22;3399;52.530;13.304;2023-03-23T05:58:39;10.60;99.90
6724;DHT22;3399;52.530;13.304;2023-03-23T06:01:08;10.50;99.90
6724;DHT22;3399;52.530;13.304;2023-03-23T06:03:33;10.50;99.90
6724;DHT22;3399;52.530;13.304;2023-03-23T06:06:02;10.40;99.90
6724;DHT22;3399;52.530;13.304;2023-03-23T06:08:28;10.30;99.90
6724;DHT22;3399;52.530;13.304;2023-03-23T06:10:54;10.20;99.90
6724;DHT22;3399;52.530;13.304;2023-03-23T06:13:20;10.30;99.90
6724;DHT22;3399;52.530;13.304;2023-03-23T06:15:46;10.20;99.90
6724;DHT22;3399;52.530;13.304;2023-03-23T06:18:12;10.20;99.90
6724;DHT22;3399;52.530;13.304;2023-03-23T06:20:38;10.20;99.90
6724;DHT22;3399;52.530;13.304;2023-03-23T06:23:04;10.10;99.90
6724;DHT22;3399;52.530;13.304;2023-03-23T06:25:30;10.20;99.90
6724;DHT22;3399;52.530;13.304;2023-03-23T06:27:55;10.10;99.90
6724;DHT22;3399;52.530;13.304;2023-03-23T06:30:21;10.10;99.90
6724;DHT22;3399;52.530;13.304;2023-03-23T06:32:47;10.10;99.90
6724;DHT22;3399;52.530;13.304;2023-03-23T06:35:13;10.20;99.90
6724;DHT22;3399;52.530;13.304;2023-03-23T06:37:40;10.10;99.90
6724;DHT22;3399;52.530;13.304;2023-03-23T06:40:07;10.20;99.90
6724;DHT22;3399;52.530;13.304;2023-03-23T06:42:32;10.10;99.90
6724;DHT22;3399;52.530;13.304;2023-03-23T06:44:58;10.10;99.90
6724;DHT22;3399;52.530;13.304;2023-03-23T06:47:26;10.20;99.90
6724;DHT22;3399;52.530;13.304;2023-03-23T06:49:52;10.20;99.90
6724;DHT22;3399;52.530;13.304;2023-03-23T06:52:18;10.20;99.90
6724;DHT22;3399;52.530;13.304;2023-03-23T06:54:44;10.20;99.90
6724;DHT22;3399;52.530;13.304;2023-03-23T06:57:09;10.20;99.90
6724;DHT22;3399;52.530;13.304;2023-03-23T06:59:35;10.10;99.90
6724;DHT22;3399;52.530;13.304;2023-03-23T07:02:00;10.10;99.90
6724;DHT22;3399;52.530;13.304;2023-03-23T07:04:26;10.20;99.90
6724;DHT22;3399;52.530;13.304;2023-03-23T07:06:52;10.20;99.90
6724;DHT22;3399;52.530;13.304;2023-03-23T07:09:17;10.20;99.90
6724;DHT22;3399;52.530;13.304;2023-03-23T07:11:43;10.20;99.90
6724;DHT22;3399;52.530;13.304;2023-03-23T07:14:09;10.20;99.90
6724;DHT22;3399;52.530;13.304;2023-03-23T07:16:34;10.20;99.90
6724;DHT22;3399;52.530;13.304;2023-03-23T07:19:00;10.20;99.90
6724;DHT22;3399;52.530;13.304;2023-03-23T07:21:26;10.30;99.90
6724;DHT22;3399;52.530;13.304;2023-03-23T07:23:52;10.30;99.90
6724;DHT22;3399;52.530;13.304;2023-03-23T07:26:17;10.20;99.90
6724;DHT22;3399;52.530;13.304;2023-03-23T07:28:43;10.30;99.90
6724;DHT22;3399;52.530;13.304;2023-03-23T07:31:08;10.30;99.90
6724;DHT22;3399;52.530;13.304;2023-03-23T07:33:35;10.40;99.90
6724;DHT22;3399;52.530;13.304;2023-03-23T07:36:01;10.50;99.90
6724;DHT22;3399;52.530;13.304;2023-03-23T07:38:28;10.50;99.90
6724;DHT22;3399;52.530;13.304;2023-03-23T07:40:55;10.60;99.90
6724;DHT22;3399;52.530;13.304;2023-03-23T07:43:21;10.60;99.90
6724;DHT22;3399;52.530;13.304;2023-03-23T07:45:47;10.70;99.90
6724;DHT22;3399;52.530;13.304;2023-03-23T07:48:13;10.70;99.90
6724;DHT22;3399;52.530;13.304;2023-03-23T07:50:39;10.80;99.90
6724;DHT22;3399;52.530;13.304;2023-03-23T07:53:05;10.90;99.90
6724;DHT22;3399;52.530;13.304;2023-03-23T07:55:31;10.90;99.90
6724;DHT22;3399;52.530;13.304;2023-03-23T07:57:57;11.00;99.90
6724;DHT22;3399;52.530;13.304;2023-03-23T08:00:23;11.00;99.90
6724;DHT22;3399;52.530;13.304;2023-03-23T08:02:54;11.00;99.90
6724;DHT22;3399;52.530;13.304;2023-03-23T08:05:23;11.00;99.90
6724;DHT22;3399;52.530;13.304;2023-03-23T08:07:52;11.00;99.90
6724;DHT22;3399;52.530;13.304;2023-03-23T08:10:20;11.00;99.90
6724;DHT22;3399;52.530;13.304;2023-03-23T08:12:51;11.10;99.90
6724;DHT22;3399;52.530;13.304;2023-03-23T08:15:18;11.10;99.90
6724;DHT22;3399;52.530;13.304;2023-03-23T08:17:44;11.10;99.90
6724;DHT22;3399;52.530;13.304;2023-03-23T08:20:11;11.10;99.90
6724;DHT22;3399;52.530;13.304;2023-03-23T08:22:41;11.20;99.90
6724;DHT22;3399;52.530;13.304;2023-03-23T08:25:09;11.30;99.90
6724;DHT22;3399;52.530;13.304;2023-03-23T08:27:35;11.40;99.90
6724;DHT22;3399;52.530;13.304;2023-03-23T08:30:01;11.40;99.90
6724;DHT22;3399;52.530;13.304;2023-03-23T08:32:27;11.40;99.90
6724;DHT22;3399;52.530;13.304;2023-03-23T08:34:52;11.50;99.90
6724;DHT22;3399;52.530;13.304;2023-03-23T08:37:18;11.50;99.90
6724;DHT22;3399;52.530;13.304;2023-03-23T08:39:43;11.60;99.90
6724;DHT22;3399;52.530;13.304;2023-03-23T08:42:10;11.80;99.90
6724;DHT22;3399;52.530;13.304;2023-03-23T08:44:36;11.90;99.90
6724;DHT22;3399;52.530;13.304;2023-03-23T08:47:02;12.10;99.90
6724;DHT22;3399;52.530;13.304;2023-03-23T08:49:30;12.10;99.90
6724;DHT22;3399;52.530;13.304;2023-03-23T08:51:58;12.20;99.90
6724;DHT22;3399;52.530;13.304;2023-03-23T08:54:23;12.40;99.90
6724;DHT22;3399;52.530;13.304;2023-03-23T08:56:49;12.40;99.90
6724;DHT22;3399;52.530;13.304;2023-03-23T08:59:14;12.40;99.90
6724;DHT22;3399;52.530;13.304;2023-03-23T09:01:40;12.40;99.90
6724;DHT22;3399;52.530;13.304;2023-03-23T09:04:06;12.50;99.90
6724;DHT22;3399;52.530;13.304;2023-03-23T09:06:31;12.60;99.90
6724;DHT22;3399;52.530;13.304;2023-03-23T09:08:58;12.70;99.90
6724;DHT22;3399;52.530;13.304;2023-03-23T09:11:25;12.70;99.90
6724;DHT22;3399;52.530;13.304;2023-03-23T09:13:51;12.60;99.90
6724;DHT22;3399;52.530;13.304;2023-03-23T09:16:17;12.60;99.90
6724;DHT22;3399;52.530;13.304;2023-03-23T09:18:42;12.60;99.90
6724;DHT22;3399;52.530;13.304;2023-03-23T09:21:08;12.70;99.90
6724;DHT22;3399;52.530;13.304;2023-03-23T09:23:34;12.80;99.90
6724;DHT22;3399;52.530;13.304;2023-03-23T09:26:01;13.00;99.90
6724;DHT22;3399;52.530;13.304;2023-03-23T09:28:27;13.00;99.90
6724;DHT22;3399;52.530;13.304;2023-03-23T09:30:55;13.10;99.90
6724;DHT22;3399;52.530;13.304;2023-03-23T09:33:22;13.20;99.90
6724;DHT22;3399;52.530;13.304;2023-03-23T09:35:48;13.30;99.90
6724;DHT22;3399;52.530;13.304;2023-03-23T09:38:14;13.50;99.90
6724;DHT22;3399;52.530;13.304;2023-03-23T09:40:48;13.50;99.90
6724;DHT22;3399;52.530;13.304;2023-03-23T09:48:55;13.70;99.90
6724;DHT22;3399;52.530;13.304;2023-03-23T09:54:26;14.00;99.90
6724;DHT22;3399;52.530;13.304;2023-03-23T09:56:53;14.20;99.90
6724;DHT22;3399;52.530;13.304;2023-03-23T09:59:25;14.40;99.90
6724;DHT22;3399;52.530;13.304;2023-03-23T10:02:01;14.40;99.90
6724;DHT22;3399;52.530;13.304;2023-03-23T10:05:00;14.40;99.90
6724;DHT22;3399;52.530;13.304;2023-03-23T10:07:29;14.50;99.90
6724;DHT22;3399;52.530;13.304;2023-03-23T10:09:56;14.40;99.90
6724;DHT22;3399;52.530;13.304;2023-03-23T10:12:56;14.40;99.90
6724;DHT22;3399;52.530;13.304;2023-03-23T10:15:30;14.20;99.90
6724;DHT22;3399;52.530;13.304;2023-03-23T10:20:46;14.40;99.90
6724;DHT22;3399;52.530;13.304;2023-03-23T10:25:52;14.50;99.90
6724;DHT22;3399;52.530;13.304;2023-03-23T10:28:32;14.60;99.90
6724;DHT22;3399;52.530;13.304;2023-03-23T10:31:00;14.70;99.90
6724;DHT22;3399;52.530;13.304;2023-03-23T10:33:41;14.80;99.90
6724;DHT22;3399;52.530;13.304;2023-03-23T10:36:34;14.90;99.90
6724;DHT22;3399;52.530;13.304;2023-03-23T10:39:11;15.00;99.90
6724;DHT22;3399;52.530;13.304;2023-03-23T10:41:38;15.10;99.90
6724;DHT22;3399;52.530;13.304;2023-03-23T10:44:19;15.30;99.90
6724;DHT22;3399;52.530;13.304;2023-03-23T10:47:05;15.10;99.90
6724;DHT22;3399;52.530;13.304;2023-03-23T10:49:38;15.00;99.90
6724;DHT22;3399;52.530;13.304;2023-03-23T10:52:34;15.10;99.90
6724;DHT22;3399;52.530;13.304;2023-03-23T10:55:11;15.10;99.90
6724;DHT22;3399;52.530;13.304;2023-03-23T10:57:39;15.10;99.90
6724;DHT22;3399;52.530;13.304;2023-03-23T11:02:39;15.00;99.90
6724;DHT22;3399;52.530;13.304;2023-03-23T11:05:18;15.10;99.90
6724;DHT22;3399;52.530;13.304;2023-03-23T11:07:52;15.10;99.90
6724;DHT22;3399;52.530;13.304;2023-03-23T11:10:27;15.00;99.90
6724;DHT22;3399;52.530;13.304;2023-03-23T11:12:57;15.00;99.90
6724;DHT22;3399;52.530;13.304;2023-03-23T11:15:34;15.00;99.90
6724;DHT22;3399;52.530;13.304;2023-03-23T11:18:04;15.00;99.90
6724;DHT22;3399;52.530;13.304;2023-03-23T11:20:37;15.10;99.90
6724;DHT22;3399;52.530;13.304;2023-03-23T11:23:21;15.10;99.90
6724;DHT22;3399;52.530;13.304;2023-03-23T11:26:09;15.00;99.90
6724;DHT22;3399;52.530;13.304;2023-03-23T11:28:42;15.20;99.90
6724;DHT22;3399;52.530;13.304;2023-03-23T11:31:09;15.40;99.90
6724;DHT22;3399;52.530;13.304;2023-03-23T11:36:35;15.60;99.90
6724;DHT22;3399;52.530;13.304;2023-03-23T11:39:03;15.60;99.90
6724;DHT22;3399;52.530;13.304;2023-03-23T11:41:33;15.40;99.90
6724;DHT22;3399;52.530;13.304;2023-03-23T11:44:08;15.30;99.90
6724;DHT22;3399;52.530;13.304;2023-03-23T11:46:53;15.30;99.90
6724;DHT22;3399;52.530;13.304;2023-03-23T11:52:11;15.40;99.90
6724;DHT22;3399;52.530;13.304;2023-03-23T11:54:46;15.30;99.90
6724;DHT22;3399;52.530;13.304;2023-03-23T11:57:12;15.40;99.90
6724;DHT22;3399;52.530;13.304;2023-03-23T11:59:39;15.60;99.90
6724;DHT22;3399;52.530;13.304;2023-03-23T12:02:50;15.60;99.90
6724;DHT22;3399;52.530;13.304;2023-03-23T12:08:29;15.60;99.90
6724;DHT22;3399;52.530;13.304;2023-03-23T12:11:06;15.60;99.90
6724;DHT22;3399;52.530;13.304;2023-03-23T12:16:51;15.60;99.90
6724;DHT22;3399;52.530;13.304;2023-03-23T12:19:43;15.60;99.90
6724;DHT22;3399;52.530;13.304;2023-03-23T12:25:33;15.60;99.90
6724;DHT22;3399;52.530;13.304;2023-03-23T12:28:20;15.50;99.90
6724;DHT22;3399;52.530;13.304;2023-03-23T12:36:36;15.60;99.90
6724;DHT22;3399;52.530;13.304;2023-03-23T12:39:39;15.70;99.90
6724;DHT22;3399;52.530;13.304;2023-03-23T12:42:21;15.70;99.90
6724;DHT22;3399;52.530;13.304;2023-03-23T12:45:25;15.80;99.90
6724;DHT22;3399;52.530;13.304;2023-03-23T12:48:00;15.80;99.90
6724;DHT22;3399;52.530;13.304;2023-03-23T12:50:40;15.80;99.90
6724;DHT22;3399;52.530;13.304;2023-03-23T12:53:21;15.80;99.90
6724;DHT22;3399;52.530;13.304;2023-03-23T12:56:34;16.00;99.90
6724;DHT22;3399;52.530;13.304;2023-03-23T12:58:50;16.30;99.90
6724;DHT22;3399;52.530;13.304;2023-03-23T13:01:30;16.90;99.90
6724;DHT22;3399;52.530;13.304;2023-03-23T13:04:08;17.20;99.90
6724;DHT22;3399;52.530;13.304;2023-03-23T13:06:43;17.50;99.90
6724;DHT22;3399;52.530;13.304;2023-03-23T13:09:32;17.90;99.90
6724;DHT22;3399;52.530;13.304;2023-03-23T13:12:03;18.00;99.90
6724;DHT22;3399;52.530;13.304;2023-03-23T13:17:40;18.90;98.80
6724;DHT22;3399;52.530;13.304;2023-03-23T13:20:31;19.00;98.00
6724;DHT22;3399;52.530;13.304;2023-03-23T13:23:20;19.70;96.90
6724;DHT22;3399;52.530;13.304;2023-03-23T13:28:44;20.00;94.70
6724;DHT22;3399;52.530;13.304;2023-03-23T13:31:16;19.20;95.00
6724;DHT22;3399;52.530;13.304;2023-03-23T13:33:53;19.10;95.70
6724;DHT22;3399;52.530;13.304;2023-03-23T13:36:39;19.80;94.90
6724;DHT22;3399;52.530;13.304;2023-03-23T13:39:20;19.70;94.30
6724;DHT22;3399;52.530;13.304;2023-03-23T13:44:26;21.40;92.00
6724;DHT22;3399;52.530;13.304;2023-03-23T13:49:57;22.20;84.00
6724;DHT22;3399;52.530;13.304;2023-03-23T13:52:58;21.60;84.70
6724;DHT22;3399;52.530;13.304;2023-03-23T13:55:40;22.40;83.30
6724;DHT22;3399;52.530;13.304;2023-03-23T14:05:49;20.30;83.70
6724;DHT22;3399;52.530;13.304;2023-03-23T14:08:22;20.60;82.30
6724;DHT22;3399;52.530;13.304;2023-03-23T14:10:55;20.60;81.80
6724;DHT22;3399;52.530;13.304;2023-03-23T14:13:33;20.10;83.00
6724;DHT22;3399;52.530;13.304;2023-03-23T14:16:14;19.90;82.20
6724;DHT22;3399;52.530;13.304;2023-03-23T14:18:54;19.50;83.10
6724;DHT22;3399;52.530;13.304;2023-03-23T14:21:48;18.90;85.40
6724;DHT22;3399;52.530;13.304;2023-03-23T14:24:23;18.70;86.00
6724;DHT22;3399;52.530;13.304;2023-03-23T14:26:50;18.30;88.00
6724;DHT22;3399;52.530;13.304;2023-03-23T14:29:18;18.10;90.00
6724;DHT22;3399;52.530;13.304;2023-03-23T14:31:55;19.40;88.10
6724;DHT22;3399;52.530;13.304;2023-03-23T14:34:23;19.70;85.00
6724;DHT22;3399;52.530;13.304;2023-03-23T14:36:50;19.00;85.30
6724;DHT22;3399;52.530;13.304;2023-03-23T14:39:28;18.10;87.00
6724;DHT22;3399;52.530;13.304;2023-03-23T14:41:56;17.60;89.40
6724;DHT22;3399;52.530;13.304;2023-03-23T14:44:29;17.40;90.00
6724;DHT22;3399;52.530;13.304;2023-03-23T14:46:57;17.30;91.00
6724;DHT22;3399;52.530;13.304;2023-03-23T14:49:35;17.30;91.30
6724;DHT22;3399;52.530;13.304;2023-03-23T14:52:09;17.30;91.30
6724;DHT22;3399;52.530;13.304;2023-03-23T14:54:35;17.10;91.00
6724;DHT22;3399;52.530;13.304;2023-03-23T14:59:50;20.00;85.80
6724;DHT22;3399;52.530;13.304;2023-03-23T15:02:36;20.80;82.30
6724;DHT22;3399;52.530;13.304;2023-03-23T15:05:09;21.40;80.00
6724;DHT22;3399;52.530;13.304;2023-03-23T15:07:37;21.80;77.40
6724;DHT22;3399;52.530;13.304;2023-03-23T15:10:14;21.90;76.20
6724;DHT22;3399;52.530;13.304;2023-03-23T15:12:43;21.60;77.00
6724;DHT22;3399;52.530;13.304;2023-03-23T15:15:24;22.30;76.20
6724;DHT22;3399;52.530;13.304;2023-03-23T15:17:50;21.80;76.60
6724;DHT22;3399;52.530;13.304;2023-03-23T15:20:26;22.10;75.70
6724;DHT22;3399;52.530;13.304;2023-03-23T15:22:52;22.00;75.10
6724;DHT22;3399;52.530;13.304;2023-03-23T15:25:28;21.70;75.20
6724;DHT22;3399;52.530;13.304;2023-03-23T15:28:12;22.00;75.20
6724;DHT22;3399;52.530;13.304;2023-03-23T15:30:50;21.90;74.80
6724;DHT22;3399;52.530;13.304;2023-03-23T15:33:17;20.70;76.70
6724;DHT22;3399;52.530;13.304;2023-03-23T15:35:48;19.60;79.50
6724;DHT22;3399;52.530;13.304;2023-03-23T15:38:20;19.00;81.90
6724;DHT22;3399;52.530;13.304;2023-03-23T15:40:49;18.60;83.60
6724;DHT22;3399;52.530;13.304;2023-03-23T15:48:22;17.50;87.10
6724;DHT22;3399;52.530;13.304;2023-03-23T15:50:49;17.30;88.30
6724;DHT22;3399;52.530;13.304;2023-03-23T15:53:30;17.20;88.50
6724;DHT22;3399;52.530;13.304;2023-03-23T15:55:59;17.10;89.50
6724;DHT22;3399;52.530;13.304;2023-03-23T15:58:26;17.00;89.50
6724;DHT22;3399;52.530;13.304;2023-03-23T16:00:51;16.90;90.20
6724;DHT22;3399;52.530;13.304;2023-03-23T16:03:31;16.80;90.00
6724;DHT22;3399;52.530;13.304;2023-03-23T16:05:58;16.60;89.60
6724;DHT22;3399;52.530;13.304;2023-03-23T16:08:28;16.50;89.80
6724;DHT22;3399;52.530;13.304;2023-03-23T16:10:53;16.50;90.50
6724;DHT22;3399;52.530;13.304;2023-03-23T16:13:19;16.40;90.80
6724;DHT22;3399;52.530;13.304;2023-03-23T16:15:46;16.40;90.90
6724;DHT22;3399;52.530;13.304;2023-03-23T16:18:17;16.40;90.90
6724;DHT22;3399;52.530;13.304;2023-03-23T16:20:43;16.30;90.70
6724;DHT22;3399;52.530;13.304;2023-03-23T16:23:09;16.30;90.80
6724;DHT22;3399;52.530;13.304;2023-03-23T16:25:34;16.20;90.70
6724;DHT22;3399;52.530;13.304;2023-03-23T16:28:00;16.20;90.80
6724;DHT22;3399;52.530;13.304;2023-03-23T16:30:28;16.20;90.80
6724;DHT22;3399;52.530;13.304;2023-03-23T16:32:54;16.20;92.00
6724;DHT22;3399;52.530;13.304;2023-03-23T16:35:21;16.20;93.70
6724;DHT22;3399;52.530;13.304;2023-03-23T16:37:49;16.00;95.20
6724;DHT22;3399;52.530;13.304;2023-03-23T16:40:17;15.80;97.10
6724;DHT22;3399;52.530;13.304;2023-03-23T16:42:43;15.50;98.90
6724;DHT22;3399;52.530;13.304;2023-03-23T16:45:09;15.20;99.90
6724;DHT22;3399;52.530;13.304;2023-03-23T16:47:35;15.00;99.90
6724;DHT22;3399;52.530;13.304;2023-03-23T16:50:01;14.80;99.90
6724;DHT22;3399;52.530;13.304;2023-03-23T16:52:26;14.60;99.90
6724;DHT22;3399;52.530;13.304;2023-03-23T16:54:52;14.40;99.90
6724;DHT22;3399;52.530;13.304;2023-03-23T16:57:18;14.30;99.90
6724;DHT22;3399;52.530;13.304;2023-03-23T16:59:43;14.20;99.90
6724;DHT22;3399;52.530;13.304;2023-03-23T17:02:10;14.10;99.90
6724;DHT22;3399;52.530;13.304;2023-03-23T17:04:41;14.00;99.90
6724;DHT22;3399;52.530;13.304;2023-03-23T17:07:07;13.80;99.90
6724;DHT22;3399;52.530;13.304;2023-03-23T17:09:33;13.80;99.90
6724;DHT22;3399;52.530;13.304;2023-03-23T17:11:58;13.70;99.90
6724;DHT22;3399;52.530;13.304;2023-03-23T17:14:24;13.60;99.90
6724;DHT22;3399;52.530;13.304;2023-03-23T17:16:50;13.60;99.90
6724;DHT22;3399;52.530;13.304;2023-03-23T17:19:15;13.50;99.90
6724;DHT22;3399;52.530;13.304;2023-03-23T17:21:42;13.40;99.90
6724;DHT22;3399;52.530;13.304;2023-03-23T17:24:08;13.30;99.90